Pilar Observatorio, Argentina

2:08 PM ART on July 29, 2016 (GMT -0300)
Ferreyra | | Change Station

Elev 1335 ft 31.45 °S, 64.12 °W | Updated 7 minutes ago

Partly Cloudy
Partly Cloudy
60.2 °F
Feels Like 60.2 °F
N
5.0
Wind Variable Wind from NE
Gusts 5.0 mph

Today
High -- | Low -- °F
--% Chance of Precip.
Yesterday
High -- | Low -- °F
Precip. -- in
Pressure 30.09 in
Visibility 6.2 miles
Clouds Few 2500 ft
Dew Point 45 °F
Humidity 58%
Rainfall 0.00 in
Snow Depth Not available.
8:05 AM 6:38 PM
Waning Crescent, 20% visible
METAR SACO 291700Z 02011KT 9999 FEW025 17/05 Q1019
Pressure 30.09 in
Visibility 6.2 miles
Clouds Few 2500 ft
Dew Point 45 °F
Humidity 58%
Rainfall 0.00 in
Snow Depth Not available.
8:05 AM 6:38 PM
Waning Crescent, 20% visible
METAR SACO 291700Z 02011KT 9999 FEW025 17/05 Q1019

10-Day Weather Forecast

No radar image for this location.
×

Almanac

Astronomy

Jul. 29, 2016 Rise Set
Actual Time
Civil Twilight
Nautical Twilight
Astronomical Twilight
Moon
Length of Visible Light
Length of Day
Tomorrow will be .
, % of the Moon is Illuminated

Today's Extremes

Country Highs Country Lows

Community

WunderPhotos

Upload Photos

1,928,381 photos uploaded!

WunderBlog® & News

Nearby

Air Quality

  Air Quality AQ Index Pollutant
Not available.

Snow Depth

Station Depth Elevation

Earthquake Activity

City Distance Mag. Time & Date
Minimum magnitude displayed is 2.5.

Coastal Water Temperatures

Place Temperature

Stations

Nearby Weather Stations

Station Location Temp. Windchill Dew Point Humidity Wind Precip. Elev Updated Type